Time;durP1;ratioP1;P1;durP2;ratioP2;P2;SDS_P1;SDS_P2;PMS_P1;PMS_P2;Temp;Humidity;BMP_temperature;BMP_pressure;BME280_temperature;BME280_humidity;BME280_pressure;Samples;Min_cycle;Max_cycle;Signal;HPM_P1;HPM_P2
2021/12/24 00:01:34;;;;;;;41.35;14.18;;;;;;;;;;5017530;28;20037;-80
2021/12/24 00:04:00;;;;;;;41.75;15.35;;;;;;;;;;5006980;28;20041;-79
2021/12/24 00:06:26;;;;;;;44.92;14.40;;;;;;;;;;5017209;28;20029;-79
2021/12/24 00:08:55;;;;;;;48.00;15.45;;;;;;;;;;5001050;28;20041;-78
2021/12/24 00:11:22;;;;;;;44.25;15.60;;;;;;;;;;5009081;28;20064;-78
2021/12/24 00:13:50;;;;;;;40.10;14.27;;;;;;;;;;5006657;28;20048;-79
2021/12/24 00:16:24;;;;;;;41.47;15.00;;;;;;;;;;5015601;28;20068;-78
2021/12/24 00:19:11;;;;;;;39.70;14.68;;;;;;;;;;5005314;28;20095;-80
2021/12/24 00:35:17;;;;;;;42.13;14.10;;;;;;;;;;5033637;28;20041;-78
2021/12/24 00:37:46;;;;;;;34.63;15.50;;;;;;;;;;5018630;28;20044;-78
2021/12/24 00:42:43;;;;;;;33.50;14.90;;;;;;;;;;5031245;28;20041;-79
2021/12/24 00:45:10;;;;;;;43.60;15.85;;;;;;;;;;5034808;28;20041;-80
2021/12/24 00:47:36;;;;;;;40.13;16.50;;;;;;;;;;5032224;28;20029;-79
2021/12/24 00:50:07;;;;;;;43.33;16.13;;;;;;;;;;5010546;28;20030;-79
2021/12/24 00:52:48;;;;;;;43.28;14.55;;;;;;;;;;5017340;28;20052;-80
2021/12/24 00:55:17;;;;;;;39.35;15.40;;;;;;;;;;5022765;28;20048;-80
2021/12/24 00:57:45;;;;;;;33.78;14.15;;;;;;;;;;5021452;28;20092;-79
2021/12/24 01:00:16;;;;;;;46.92;16.13;;;;;;;;;;5031717;28;20041;-79
2021/12/24 01:02:43;;;;;;;48.80;15.98;;;;;;;;;;5033264;28;20102;-79
2021/12/24 01:05:10;;;;;;;53.38;17.23;;;;;;;;;;5035097;28;20130;-79
2021/12/24 01:07:36;;;;;;;45.03;15.45;;;;;;;;;;5035735;28;20128;-81
2021/12/24 01:10:03;;;;;;;36.40;15.65;;;;;;;;;;5036079;28;20098;-79
2021/12/24 01:12:29;;;;;;;45.45;14.63;;;;;;;;;;5035998;28;20337;-78
2021/12/24 01:14:55;;;;;;;33.03;12.73;;;;;;;;;;5035239;28;20041;-75
2021/12/24 01:17:37;;;;;;;30.55;12.48;;;;;;;;;;5047768;28;20119;-74
2021/12/24 01:20:12;;;;;;;25.80;10.95;;;;;;;;;;5054367;28;20048;-72
2021/12/24 01:23:14;;;;;;;34.67;11.27;;;;;;;;;;5054065;28;20045;-73
2021/12/24 01:28:34;;;;;;;23.00;9.93;;;;;;;;;;5034058;28;20076;-77
2021/12/24 01:44:28;;;;;;;27.17;10.25;;;;;;;;;;5021139;28;20393;-76
2021/12/24 01:46:58;;;;;;;20.88;8.93;;;;;;;;;;5041646;28;20041;-75
2021/12/24 01:49:25;;;;;;;19.50;8.35;;;;;;;;;;5032547;28;20057;-75
2021/12/24 01:51:51;;;;;;;14.60;7.40;;;;;;;;;;5033124;28;20098;-74
2021/12/24 01:54:18;;;;;;;16.13;8.02;;;;;;;;;;5020364;28;20033;-75
2021/12/24 01:56:44;;;;;;;19.02;7.85;;;;;;;;;;5026750;28;20049;-76
2021/12/24 01:59:10;;;;;;;16.85;7.78;;;;;;;;;;5038482;28;20520;-74
2021/12/24 02:01:37;;;;;;;18.15;8.55;;;;;;;;;;5028576;28;20049;-76
2021/12/24 02:04:03;;;;;;;18.90;9.05;;;;;;;;;;5048449;28;20041;-76
2021/12/24 02:06:29;;;;;;;20.23;9.77;;;;;;;;;;5019162;28;20049;-76
2021/12/24 02:08:55;;;;;;;29.42;10.23;;;;;;;;;;5026363;28;20041;-74
2021/12/24 02:11:21;;;;;;;19.30;9.77;;;;;;;;;;5047673;28;20076;-74
2021/12/24 02:13:48;;;;;;;20.27;9.57;;;;;;;;;;5018411;28;20048;-75
2021/12/24 02:29:55;;;;;;;32.00;12.90;;;;;;;;;;5035105;28;20052;-77
2021/12/24 02:32:21;;;;;;;25.88;11.38;;;;;;;;;;5033665;28;20400;-78
2021/12/24 02:34:47;;;;;;;27.80;12.25;;;;;;;;;;5028095;28;20449;-80
2021/12/24 02:37:13;;;;;;;36.28;12.40;;;;;;;;;;5051347;28;20043;-77
2021/12/24 02:39:40;;;;;;;28.30;13.02;;;;;;;;;;5033666;28;20103;-79
2021/12/24 02:42:24;;;;;;;33.17;12.77;;;;;;;;;;5046182;28;20045;-78
2021/12/24 02:44:51;;;;;;;30.55;12.68;;;;;;;;;;5030843;28;20116;-78
2021/12/24 02:55:06;;;;;;;40.88;14.88;;;;;;;;;;5035503;28;20380;-79
2021/12/24 02:57:34;;;;;;;60.50;16.98;;;;;;;;;;5034376;28;20070;-79
2021/12/24 03:00:12;;;;;;;51.55;15.30;;;;;;;;;;5016795;28;20037;-79
2021/12/24 03:02:39;;;;;;;58.05;15.80;;;;;;;;;;5031425;28;20513;-79
2021/12/24 03:05:08;;;;;;;56.33;16.40;;;;;;;;;;5037550;28;20044;-79
2021/12/24 03:07:34;;;;;;;52.65;16.58;;;;;;;;;;5043717;28;20086;-79
2021/12/24 03:10:00;;;;;;;75.57;17.90;;;;;;;;;;5038333;28;20124;-79
2021/12/24 03:12:29;;;;;;;83.63;18.23;;;;;;;;;;5039184;28;20060;-79
2021/12/24 03:14:55;;;;;;;80.25;19.15;;;;;;;;;;5035834;28;20449;-79
2021/12/24 03:17:24;;;;;;;78.57;19.40;;;;;;;;;;5022279;28;20036;-79
2021/12/24 03:19:52;;;;;;;98.00;19.27;;;;;;;;;;5055980;28;20044;-79
2021/12/24 03:25:04;;;;;;;109.70;20.25;;;;;;;;;;5036776;28;20052;-79
2021/12/24 03:27:30;;;;;;;109.07;20.75;;;;;;;;;;5054159;28;20079;-79
2021/12/24 03:29:57;;;;;;;88.15;19.35;;;;;;;;;;5029933;28;20037;-79
2021/12/24 03:32:24;;;;;;;92.82;20.23;;;;;;;;;;5055081;28;20102;-79
2021/12/24 03:34:50;;;;;;;67.00;18.80;;;;;;;;;;5038443;28;20040;-78
2021/12/24 03:37:16;;;;;;;85.80;20.30;;;;;;;;;;5038004;28;20131;-78
2021/12/24 03:39:43;;;;;;;78.07;18.63;;;;;;;;;;5020519;28;20395;-78
2021/12/24 03:42:09;;;;;;;78.70;20.27;;;;;;;;;;5022461;28;20056;-79
2021/12/24 03:44:42;;;;;;;86.75;19.25;;;;;;;;;;5037675;28;20029;-79
2021/12/24 03:47:12;;;;;;;63.08;17.70;;;;;;;;;;5036627;28;20070;-79
2021/12/24 03:54:57;;;;;;;64.80;17.00;;;;;;;;;;5033962;28;20051;-79
2021/12/24 03:57:31;;;;;;;68.40;17.98;;;;;;;;;;5052173;28;20053;-80
2021/12/24 03:59:58;;;;;;;72.50;18.77;;;;;;;;;;5024251;28;20119;-79
2021/12/24 04:02:24;;;;;;;63.58;19.50;;;;;;;;;;5032817;28;20040;-80
2021/12/24 04:04:51;;;;;;;61.65;20.67;;;;;;;;;;5031472;28;20051;-79
2021/12/24 04:07:17;;;;;;;71.85;20.60;;;;;;;;;;5020552;28;20124;-79
2021/12/24 04:09:53;;;;;;;63.85;21.63;;;;;;;;;;5022003;28;20060;-78
2021/12/24 04:12:19;;;;;;;50.35;18.33;;;;;;;;;;5037515;28;20048;-79
2021/12/24 04:14:45;;;;;;;64.18;22.55;;;;;;;;;;5034511;28;20041;-79
2021/12/24 04:17:12;;;;;;;69.45;23.67;;;;;;;;;;5036791;28;20045;-79
2021/12/24 04:27:18;;;;;;;61.58;24.50;;;;;;;;;;5017671;28;20519;-80
2021/12/24 04:29:44;;;;;;;69.18;24.73;;;;;;;;;;5046154;28;20444;-79
2021/12/24 04:32:18;;;;;;;64.60;23.08;;;;;;;;;;5025487;28;20033;-78
2021/12/24 04:34:49;;;;;;;65.07;24.30;;;;;;;;;;5034860;28;20052;-80
2021/12/24 04:51:09;;;;;;;53.10;21.33;;;;;;;;;;5017599;28;20041;-79
2021/12/24 05:01:47;;;;;;;63.58;23.27;;;;;;;;;;5018198;28;20444;-78
2021/12/24 05:04:14;;;;;;;58.55;21.58;;;;;;;;;;5025627;28;20064;-79
2021/12/24 05:06:50;;;;;;;46.70;19.98;;;;;;;;;;5032294;28;20036;-79
2021/12/24 05:09:22;;;;;;;53.53;20.92;;;;;;;;;;5034739;28;20044;-79
2021/12/24 05:11:48;;;;;;;49.05;17.80;;;;;;;;;;5032793;28;20048;-79
2021/12/24 05:14:15;;;;;;;54.03;19.98;;;;;;;;;;5030334;28;20491;-80
2021/12/24 05:21:42;;;;;;;40.15;16.48;;;;;;;;;;5032043;28;20140;-78
2021/12/24 05:24:20;;;;;;;50.00;17.38;;;;;;;;;;5001045;28;20460;-79
2021/12/24 05:26:48;;;;;;;49.85;14.23;;;;;;;;;;5025950;28;20033;-79
2021/12/24 05:29:15;;;;;;;37.90;14.65;;;;;;;;;;5020187;28;20044;-79
2021/12/24 05:31:41;;;;;;;49.50;14.93;;;;;;;;;;5026032;28;20480;-79
2021/12/24 05:34:08;;;;;;;42.60;14.88;;;;;;;;;;5031582;28;20037;-79
2021/12/24 05:36:34;;;;;;;35.95;13.52;;;;;;;;;;5030969;28;20114;-79
2021/12/24 05:39:00;;;;;;;43.70;13.30;;;;;;;;;;5020073;28;20047;-80
2021/12/24 05:41:26;;;;;;;34.50;11.82;;;;;;;;;;5033266;28;20052;-79
2021/12/24 05:43:52;;;;;;;37.15;11.63;;;;;;;;;;5033076;28;20041;-79
2021/12/24 05:46:19;;;;;;;39.75;12.45;;;;;;;;;;5048958;28;20056;-79
2021/12/24 05:48:45;;;;;;;37.35;12.73;;;;;;;;;;5036028;28;20044;-80
2021/12/24 05:51:11;;;;;;;36.78;11.23;;;;;;;;;;5035241;28;20112;-78
2021/12/24 05:53:41;;;;;;;35.35;11.57;;;;;;;;;;5034620;28;20068;-80
2021/12/24 05:56:07;;;;;;;35.17;11.23;;;;;;;;;;5034920;28;20098;-80
2021/12/24 05:58:33;;;;;;;44.25;11.65;;;;;;;;;;5032684;28;20051;-80
2021/12/24 06:00:59;;;;;;;35.67;11.05;;;;;;;;;;5019544;28;20033;-80
2021/12/24 06:03:25;;;;;;;39.53;11.13;;;;;;;;;;5015525;28;20119;-78
2021/12/24 06:05:51;;;;;;;38.15;10.77;;;;;;;;;;5037616;28;20025;-79
2021/12/24 06:08:17;;;;;;;31.38;10.27;;;;;;;;;;5031414;28;20092;-79
2021/12/24 06:10:43;;;;;;;28.40;11.07;;;;;;;;;;5031418;28;20045;-80
2021/12/24 06:13:10;;;;;;;38.33;10.02;;;;;;;;;;5032741;28;20048;-80
2021/12/24 06:15:43;;;;;;;36.00;10.75;;;;;;;;;;5048804;28;20433;-80
2021/12/24 06:18:20;;;;;;;28.77;10.25;;;;;;;;;;5050263;28;20111;-80
2021/12/24 06:20:46;;;;;;;34.22;10.48;;;;;;;;;;5019651;28;20041;-79
2021/12/24 06:23:12;;;;;;;31.90;10.15;;;;;;;;;;5035403;28;20043;-80
2021/12/24 06:25:39;;;;;;;30.40;8.98;;;;;;;;;;5043502;28;20115;-79
2021/12/24 06:28:05;;;;;;;31.33;9.18;;;;;;;;;;5027641;28;20048;-80
2021/12/24 06:30:32;;;;;;;33.50;10.10;;;;;;;;;;5035065;28;20052;-79
2021/12/24 06:32:58;;;;;;;28.98;10.10;;;;;;;;;;5038841;28;20044;-79
2021/12/24 06:35:25;;;;;;;28.60;9.27;;;;;;;;;;5027538;28;20052;-79
2021/12/24 06:37:52;;;;;;;28.55;10.18;;;;;;;;;;5032595;28;20353;-80
2021/12/24 06:40:18;;;;;;;37.38;11.02;;;;;;;;;;5034581;28;21033;-80
2021/12/24 06:42:44;;;;;;;32.45;10.32;;;;;;;;;;5035836;28;20034;-79
2021/12/24 06:45:11;;;;;;;32.25;10.43;;;;;;;;;;5003576;28;20052;-78
2021/12/24 06:47:37;;;;;;;34.92;10.70;;;;;;;;;;5036557;28;20034;-79
2021/12/24 06:50:04;;;;;;;38.75;11.55;;;;;;;;;;5057147;28;20048;-80
2021/12/24 06:52:31;;;;;;;31.65;10.82;;;;;;;;;;5043286;28;20464;-79
2021/12/24 06:54:57;;;;;;;45.78;12.05;;;;;;;;;;5039524;28;20106;-80
2021/12/24 06:57:25;;;;;;;33.65;11.38;;;;;;;;;;5055754;28;20040;-78
2021/12/24 06:59:54;;;;;;;32.30;11.18;;;;;;;;;;5036915;28;20313;-79
2021/12/24 07:02:26;;;;;;;34.67;11.43;;;;;;;;;;5022104;28;20037;-83
2021/12/24 07:04:52;;;;;;;35.42;10.88;;;;;;;;;;5022957;28;20174;-80
2021/12/24 07:07:21;;;;;;;29.50;9.57;;;;;;;;;;5038130;28;20040;-80
2021/12/24 07:09:47;;;;;;;27.98;9.93;;;;;;;;;;5039669;28;20029;-80
2021/12/24 07:12:14;;;;;;;32.35;11.43;;;;;;;;;;5019920;28;20041;-79
2021/12/24 07:14:41;;;;;;;33.40;9.85;;;;;;;;;;5028158;28;20508;-79
2021/12/24 07:17:08;;;;;;;35.05;10.82;;;;;;;;;;5037022;28;20028;-79
2021/12/24 07:19:37;;;;;;;25.13;11.05;;;;;;;;;;5038779;28;20124;-79
2021/12/24 07:22:03;;;;;;;27.55;10.63;;;;;;;;;;5038945;28;20037;-79
2021/12/24 07:24:35;;;;;;;28.60;11.65;;;;;;;;;;5022131;28;20040;-79
2021/12/24 07:27:01;;;;;;;36.72;12.07;;;;;;;;;;5037419;28;20406;-79
2021/12/24 07:29:28;;;;;;;33.22;12.30;;;;;;;;;;5023071;28;20032;-79
2021/12/24 07:31:54;;;;;;;48.83;14.43;;;;;;;;;;5038624;28;20090;-79
2021/12/24 07:34:20;;;;;;;39.60;13.57;;;;;;;;;;5038272;28;20048;-79
2021/12/24 07:36:47;;;;;;;38.33;14.18;;;;;;;;;;5021147;28;20040;-78
2021/12/24 07:39:13;;;;;;;38.60;12.48;;;;;;;;;;5037415;28;20051;-79
2021/12/24 07:41:39;;;;;;;35.28;12.70;;;;;;;;;;5022420;28;20401;-79
2021/12/24 07:44:08;;;;;;;33.05;11.40;;;;;;;;;;5038709;28;20128;-79
2021/12/24 07:46:42;;;;;;;37.67;12.15;;;;;;;;;;5020490;28;20115;-79
2021/12/24 07:54:29;;;;;;;31.13;10.45;;;;;;;;;;5020003;28;20333;-78
2021/12/24 07:56:56;;;;;;;37.75;11.55;;;;;;;;;;5037046;28;20059;-78
2021/12/24 07:59:26;;;;;;;27.17;9.90;;;;;;;;;;5038374;28;20037;-78
2021/12/24 08:02:04;;;;;;;32.38;10.57;;;;;;;;;;5020722;28;20124;-78
2021/12/24 08:04:57;;;;;;;31.35;10.70;;;;;;;;;;5049627;28;20091;-78
2021/12/24 08:07:31;;;;;;;25.98;10.70;;;;;;;;;;5023327;28;20041;-78
2021/12/24 08:10:05;;;;;;;32.83;10.48;;;;;;;;;;5021484;28;20123;-77
2021/12/24 08:12:34;;;;;;;37.58;11.00;;;;;;;;;;5021072;28;20356;-78
2021/12/24 08:15:00;;;;;;;32.13;10.50;;;;;;;;;;5021940;28;20037;-78
2021/12/24 08:17:29;;;;;;;25.75;9.80;;;;;;;;;;5025173;28;20052;-77
2021/12/24 08:19:55;;;;;;;19.98;8.70;;;;;;;;;;5024894;28;20333;-78
2021/12/24 08:22:21;;;;;;;25.38;9.35;;;;;;;;;;5023567;28;20040;-77
2021/12/24 08:24:47;;;;;;;18.20;8.48;;;;;;;;;;5017984;28;20112;-77
2021/12/24 08:27:19;;;;;;;19.75;8.80;;;;;;;;;;5034400;28;20025;-79
2021/12/24 08:29:49;;;;;;;29.45;9.00;;;;;;;;;;5036495;28;20043;-79
2021/12/24 08:32:19;;;;;;;22.90;8.55;;;;;;;;;;5021099;28;20046;-78
2021/12/24 08:35:05;;;;;;;15.10;7.43;;;;;;;;;;5036710;28;20032;-77
2021/12/24 08:37:34;;;;;;;20.17;7.95;;;;;;;;;;5004877;28;20361;-79
2021/12/24 08:40:26;;;;;;;20.38;8.35;;;;;;;;;;5035095;28;20185;-78
2021/12/24 08:42:52;;;;;;;21.23;8.85;;;;;;;;;;5025102;28;20135;-77
2021/12/24 08:45:21;;;;;;;19.38;8.02;;;;;;;;;;5020522;28;20067;-80
2021/12/24 08:50:47;;;;;;;14.75;7.00;;;;;;;;;;5020713;28;20396;-80
2021/12/24 08:53:20;;;;;;;11.90;6.40;;;;;;;;;;5036106;28;20036;-81
2021/12/24 08:55:46;;;;;;;14.35;6.43;;;;;;;;;;5018554;28;20049;-78
2021/12/24 08:58:12;;;;;;;18.40;6.47;;;;;;;;;;5020333;28;20032;-80
2021/12/24 09:00:41;;;;;;;12.48;6.90;;;;;;;;;;5017842;28;20080;-79
2021/12/24 09:03:07;;;;;;;10.65;5.47;;;;;;;;;;5035580;28;20449;-77
2021/12/24 09:05:33;;;;;;;8.38;3.75;;;;;;;;;;5026975;28;20032;-80
2021/12/24 09:08:01;;;;;;;5.78;3.40;;;;;;;;;;5036770;28;20116;-75
2021/12/24 09:10:27;;;;;;;5.40;2.92;;;;;;;;;;5052343;28;20049;-74
2021/12/24 09:12:53;;;;;;;3.55;2.58;;;;;;;;;;5038451;28;20044;-75
2021/12/24 09:15:30;;;;;;;4.22;2.75;;;;;;;;;;5055752;28;20112;-77
2021/12/24 09:17:59;;;;;;;3.83;2.80;;;;;;;;;;5053983;28;20466;-77
2021/12/24 09:20:30;;;;;;;3.55;2.42;;;;;;;;;;5014754;28;20045;-79
2021/12/24 09:22:56;;;;;;;4.78;2.80;;;;;;;;;;5026914;28;20354;-80
2021/12/24 09:25:24;;;;;;;3.63;2.70;;;;;;;;;;5014717;28;20029;-81
2021/12/24 09:27:51;;;;;;;5.60;2.63;;;;;;;;;;5018163;28;20032;-79
2021/12/24 09:30:17;;;;;;;5.72;2.90;;;;;;;;;;5025062;28;20401;-81
2021/12/24 09:32:43;;;;;;;3.90;2.67;;;;;;;;;;5017203;28;20041;-81
2021/12/24 09:35:11;;;;;;;5.55;2.95;;;;;;;;;;5017020;28;20144;-80
2021/12/24 09:37:37;;;;;;;4.32;2.88;;;;;;;;;;5034907;28;20057;-80
2021/12/24 09:40:05;;;;;;;5.03;3.78;;;;;;;;;;5012234;28;20087;-81
2021/12/24 09:45:51;;;;;;;3.42;2.20;;;;;;;;;;5034497;28;20442;-79
2021/12/24 09:48:17;;;;;;;3.70;1.90;;;;;;;;;;4997440;28;20064;-79
2021/12/24 09:50:44;;;;;;;5.43;2.05;;;;;;;;;;5004963;28;20049;-79
2021/12/24 09:53:10;;;;;;;2.50;1.77;;;;;;;;;;5019164;28;20040;-78
2021/12/24 09:55:36;;;;;;;3.83;2.00;;;;;;;;;;5035406;28;20048;-78
2021/12/24 09:58:02;;;;;;;5.22;2.10;;;;;;;;;;5034129;28;20314;-76
2021/12/24 10:00:28;;;;;;;2.78;2.13;;;;;;;;;;5034485;28;20029;-78
2021/12/24 10:02:56;;;;;;;3.22;2.17;;;;;;;;;;5056794;28;20436;-78
2021/12/24 10:05:31;;;;;;;3.92;2.20;;;;;;;;;;5039375;28;20041;-78
2021/12/24 10:08:01;;;;;;;7.47;2.80;;;;;;;;;;5020350;28;20041;-80
2021/12/24 10:10:30;;;;;;;4.95;3.28;;;;;;;;;;5038639;28;20037;-82
2021/12/24 10:12:58;;;;;;;6.68;3.75;;;;;;;;;;5022132;28;20067;-81
2021/12/24 10:15:24;;;;;;;6.68;3.50;;;;;;;;;;5026094;28;20075;-79
2021/12/24 10:17:50;;;;;;;5.72;3.40;;;;;;;;;;5022353;28;20041;-78
2021/12/24 10:20:20;;;;;;;5.22;3.30;;;;;;;;;;5039702;28;20037;-81
2021/12/24 10:22:54;;;;;;;7.20;3.35;;;;;;;;;;5039453;28;20072;-77
2021/12/24 10:25:29;;;;;;;6.88;3.17;;;;;;;;;;5039278;28;20051;-76
2021/12/24 10:27:56;;;;;;;4.10;2.80;;;;;;;;;;5031061;28;20426;-77
2021/12/24 10:30:22;;;;;;;5.13;3.40;;;;;;;;;;5055070;28;20092;-77
2021/12/24 10:32:49;;;;;;;4.35;2.97;;;;;;;;;;5033057;28;20105;-76
2021/12/24 10:35:25;;;;;;;5.45;3.40;;;;;;;;;;5039508;28;20071;-78
2021/12/24 10:37:51;;;;;;;;;;;;;;;;;;5039299;28;20041;-77
2021/12/24 10:40:38;;;;;;;4.28;3.08;;;;;;;;;;5039300;28;19927;-83
2021/12/24 10:43:04;;;;;;;6.20;3.28;;;;;;;;;;5021169;28;20356;-79
2021/12/24 10:45:32;;;;;;;4.93;3.60;;;;;;;;;;5037724;28;20033;-80
2021/12/24 10:47:58;;;;;;;5.82;4.00;;;;;;;;;;5007944;28;20124;-77
2021/12/24 10:50:30;;;;;;;6.47;4.10;;;;;;;;;;5035528;28;20054;-82
2021/12/24 10:55:31;;;;;;;7.88;3.78;;;;;;;;;;5040005;28;20055;-80
2021/12/24 10:58:07;;;;;;;8.23;4.35;;;;;;;;;;5031660;28;20112;-79
2021/12/24 11:00:58;;;;;;;6.97;4.22;;;;;;;;;;5038745;28;20072;-81
2021/12/24 11:03:53;;;;;;;10.00;4.10;;;;;;;;;;5021296;28;20033;-81
2021/12/24 11:06:21;;;;;;;6.88;4.18;;;;;;;;;;5039270;28;20079;-79
2021/12/24 11:08:53;;;;;;;4.55;3.92;;;;;;;;;;5055473;28;20052;-81
2021/12/24 11:11:22;;;;;;;5.20;3.75;;;;;;;;;;5022744;28;20037;-78
2021/12/24 11:13:54;;;;;;;9.60;3.47;;;;;;;;;;5023576;28;20048;-80
2021/12/24 11:16:22;;;;;;;6.20;3.55;;;;;;;;;;5008742;28;20057;-77
2021/12/24 11:18:56;;;;;;;5.50;3.47;;;;;;;;;;5035764;28;20080;-78
2021/12/24 11:21:24;;;;;;;5.10;3.60;;;;;;;;;;5038892;28;20068;-80
2021/12/24 11:23:50;;;;;;;6.13;3.60;;;;;;;;;;5039067;28;20075;-80
2021/12/24 11:26:24;;;;;;;6.60;3.70;;;;;;;;;;5038737;28;20033;-79
2021/12/24 11:28:51;;;;;;;6.93;3.60;;;;;;;;;;5023101;28;20037;-80
2021/12/24 11:31:18;;;;;;;5.90;3.70;;;;;;;;;;5019797;28;20088;-78
2021/12/24 11:33:45;;;;;;;7.20;3.65;;;;;;;;;;5021223;28;20057;-79
2021/12/24 11:36:13;;;;;;;5.47;3.10;;;;;;;;;;5038755;28;20044;-78
2021/12/24 11:38:41;;;;;;;5.78;3.28;;;;;;;;;;5056165;28;20029;-79
2021/12/24 11:41:11;;;;;;;7.53;3.60;;;;;;;;;;5038672;28;20040;-79
2021/12/24 11:43:38;;;;;;;4.53;3.10;;;;;;;;;;5030707;28;20040;-78
2021/12/24 11:46:06;;;;;;;5.90;3.10;;;;;;;;;;5025440;28;20075;-78
2021/12/24 11:48:33;;;;;;;4.57;2.67;;;;;;;;;;5053879;28;20392;-79
2021/12/24 11:51:18;;;;;;;3.88;2.58;;;;;;;;;;5021908;28;20047;-81
2021/12/24 11:53:52;;;;;;;3.72;2.50;;;;;;;;;;5022983;28;20052;-79
2021/12/24 11:56:20;;;;;;;4.95;2.20;;;;;;;;;;5054153;28;20051;-81
2021/12/24 11:58:47;;;;;;;3.85;2.25;;;;;;;;;;5020704;28;20064;-80
2021/12/24 12:01:17;;;;;;;4.93;2.30;;;;;;;;;;5018050;28;20102;-80
2021/12/24 12:03:52;;;;;;;2.03;1.77;;;;;;;;;;5029363;28;20460;-80
2021/12/24 12:06:18;;;;;;;4.30;2.03;;;;;;;;;;5036753;28;20045;-81
2021/12/24 12:08:45;;;;;;;3.35;2.00;;;;;;;;;;5021774;28;20028;-80
2021/12/24 12:11:14;;;;;;;3.72;2.00;;;;;;;;;;5037671;28;20048;-81
2021/12/24 12:13:52;;;;;;;3.88;2.00;;;;;;;;;;5038139;28;20452;-80
2021/12/24 12:16:19;;;;;;;3.25;1.90;;;;;;;;;;5043006;28;20445;-79
2021/12/24 12:19:01;;;;;;;3.55;2.00;;;;;;;;;;5036747;28;20118;-80
2021/12/24 12:21:40;;;;;;;3.22;2.00;;;;;;;;;;5018553;28;20049;-79
2021/12/24 12:26:50;;;;;;;4.50;2.10;;;;;;;;;;5035883;28;20436;-78
2021/12/24 12:29:19;;;;;;;2.90;1.98;;;;;;;;;;5046786;28;20599;-80
2021/12/24 12:31:47;;;;;;;4.25;2.33;;;;;;;;;;5026576;28;20041;-79
2021/12/24 12:34:32;;;;;;;4.03;2.03;;;;;;;;;;5001303;28;20037;-79
2021/12/24 12:37:15;;;;;;;3.17;2.10;;;;;;;;;;5001475;28;20042;-79
2021/12/24 12:39:41;;;;;;;2.92;1.85;;;;;;;;;;5019492;28;20037;-79
2021/12/24 12:42:08;;;;;;;4.30;1.52;;;;;;;;;;5037212;28;20102;-80
2021/12/24 12:44:35;;;;;;;3.20;1.70;;;;;;;;;;5020999;28;20095;-80
2021/12/24 12:47:14;;;;;;;6.90;1.80;;;;;;;;;;5020770;28;20044;-80
2021/12/24 12:49:41;;;;;;;3.17;1.65;;;;;;;;;;5020255;28;20129;-78
2021/12/24 12:52:12;;;;;;;3.85;1.90;;;;;;;;;;5028770;28;20519;-80
2021/12/24 12:54:39;;;;;;;3.55;1.80;;;;;;;;;;5036117;28;20028;-80
2021/12/24 12:57:12;;;;;;;3.85;1.80;;;;;;;;;;5021148;28;20052;-80
2021/12/24 12:59:38;;;;;;;3.10;1.77;;;;;;;;;;5019168;28;20044;-79
2021/12/24 13:02:05;;;;;;;3.00;1.58;;;;;;;;;;5025985;28;20055;-81
2021/12/24 13:04:31;;;;;;;3.92;1.65;;;;;;;;;;5020251;28;20364;-81
2021/12/24 13:06:58;;;;;;;2.20;1.50;;;;;;;;;;5020682;28;20029;-79
2021/12/24 13:09:28;;;;;;;2.60;1.20;;;;;;;;;;5023685;28;20453;-79
2021/12/24 13:11:55;;;;;;;3.10;1.50;;;;;;;;;;5024135;28;20382;-79
2021/12/24 13:14:23;;;;;;;1.75;1.35;;;;;;;;;;5010503;28;20033;-79
2021/12/24 13:16:53;;;;;;;2.70;1.10;;;;;;;;;;5021949;28;20037;-79
2021/12/24 13:24:18;;;;;;;4.80;1.40;;;;;;;;;;5033852;28;20059;-79
2021/12/24 13:26:47;;;;;;;2.42;1.30;;;;;;;;;;5027435;28;20048;-79
2021/12/24 13:29:16;;;;;;;3.50;1.50;;;;;;;;;;5033836;28;20155;-78
2021/12/24 13:31:49;;;;;;;2.67;1.20;;;;;;;;;;5004811;28;20029;-80
2021/12/24 13:34:16;;;;;;;2.38;1.33;;;;;;;;;;5036377;28;20143;-79
2021/12/24 13:36:42;;;;;;;2.65;1.23;;;;;;;;;;5034883;28;20103;-80
2021/12/24 13:39:16;;;;;;;2.22;1.15;;;;;;;;;;5020311;28;20353;-79
2021/12/24 13:41:45;;;;;;;2.60;1.45;;;;;;;;;;5019200;28;20349;-80
2021/12/24 13:44:25;;;;;;;3.85;1.40;;;;;;;;;;5011795;28;20036;-79
2021/12/24 13:47:00;;;;;;;3.08;1.15;;;;;;;;;;5003715;28;20112;-77
2021/12/24 13:54:49;;;;;;;2.92;1.23;;;;;;;;;;5034996;28;20080;-79
2021/12/24 13:57:17;;;;;;;3.17;1.30;;;;;;;;;;5016795;28;20044;-81
2021/12/24 13:59:43;;;;;;;4.70;1.70;;;;;;;;;;5018138;28;20029;-80
2021/12/24 14:02:12;;;;;;;2.92;1.40;;;;;;;;;;5027961;28;21495;-81
2021/12/24 14:15:10;;;;;;;3.63;1.63;;;;;;;;;;4996396;28;20065;-82
2021/12/24 14:24:23;;;;;;;5.93;1.75;;;;;;;;;;4996043;28;20038;-81
2021/12/24 14:26:54;;;;;;;3.05;1.40;;;;;;;;;;4993510;28;20441;-80
2021/12/24 14:29:31;;;;;;;6.03;1.52;;;;;;;;;;4986003;28;20498;-81
2021/12/24 14:31:58;;;;;;;4.30;1.38;;;;;;;;;;4987078;28;20046;-79
2021/12/24 14:34:43;;;;;;;4.40;1.75;;;;;;;;;;4995930;28;20472;-78
2021/12/24 14:37:22;;;;;;;4.85;1.58;;;;;;;;;;4995939;28;20129;-79
2021/12/24 14:39:48;;;;;;;6.75;1.92;;;;;;;;;;5029665;28;20038;-78
2021/12/24 14:42:19;;;;;;;5.65;1.73;;;;;;;;;;5017640;28;20216;-79
2021/12/24 14:44:46;;;;;;;5.65;1.63;;;;;;;;;;4997191;28;20041;-79
2021/12/24 14:47:12;;;;;;;5.80;1.80;;;;;;;;;;4982929;28;20038;-79
2021/12/24 14:49:40;;;;;;;3.55;1.40;;;;;;;;;;5000704;28;20095;-79
2021/12/24 14:52:19;;;;;;;5.88;1.92;;;;;;;;;;5008093;28;20034;-81
2021/12/24 14:55:04;;;;;;;7.75;1.50;;;;;;;;;;5003357;28;20045;-80
2021/12/24 14:57:32;;;;;;;6.88;2.00;;;;;;;;;;4986265;28;20420;-81
2021/12/24 15:00:04;;;;;;;3.28;1.70;;;;;;;;;;4983918;28;20112;-79
2021/12/24 15:02:30;;;;;;;5.35;1.70;;;;;;;;;;4983496;28;20100;-81
2021/12/24 15:04:56;;;;;;;5.15;1.60;;;;;;;;;;4991016;28;20052;-79
2021/12/24 15:07:30;;;;;;;4.13;1.80;;;;;;;;;;5015397;28;20034;-79
2021/12/24 15:10:13;;;;;;;4.45;1.92;;;;;;;;;;4999916;28;20033;-79
2021/12/24 15:12:49;;;;;;;5.35;1.70;;;;;;;;;;5035342;28;20037;-79
2021/12/24 15:15:16;;;;;;;2.38;1.52;;;;;;;;;;5019129;28;20357;-79
2021/12/24 15:17:44;;;;;;;5.95;1.70;;;;;;;;;;5036720;28;20056;-77
2021/12/24 15:20:10;;;;;;;5.43;1.80;;;;;;;;;;5017172;28;20077;-80
2021/12/24 15:22:39;;;;;;;3.72;1.67;;;;;;;;;;4999277;28;20042;-78
2021/12/24 15:25:09;;;;;;;4.22;1.65;;;;;;;;;;5018197;28;20457;-80
2021/12/24 15:27:45;;;;;;;7.60;1.70;;;;;;;;;;5031072;28;20029;-80
2021/12/24 15:30:13;;;;;;;4.72;1.50;;;;;;;;;;5024375;28;20433;-78
2021/12/24 15:32:39;;;;;;;3.45;1.60;;;;;;;;;;5015692;28;20381;-79
2021/12/24 15:35:06;;;;;;;2.75;1.40;;;;;;;;;;5018445;28;20042;-79
2021/12/24 15:37:32;;;;;;;2.92;1.58;;;;;;;;;;5007829;28;20112;-79
2021/12/24 15:39:59;;;;;;;4.70;1.98;;;;;;;;;;5017612;28;20041;-80
2021/12/24 15:42:28;;;;;;;6.28;1.73;;;;;;;;;;5018760;28;20053;-79
2021/12/24 15:44:54;;;;;;;6.45;1.73;;;;;;;;;;5019306;28;20123;-79
2021/12/24 15:47:20;;;;;;;1.88;1.23;;;;;;;;;;5017854;28;20041;-80
2021/12/24 15:49:47;;;;;;;4.10;1.73;;;;;;;;;;5007936;28;20045;-81
2021/12/24 15:52:13;;;;;;;2.67;1.58;;;;;;;;;;5015167;28;20041;-79
2021/12/24 15:54:39;;;;;;;9.00;2.10;;;;;;;;;;5036378;28;20052;-81
2021/12/24 15:57:05;;;;;;;3.92;2.33;;;;;;;;;;5018051;28;20045;-78
2021/12/24 15:59:33;;;;;;;3.92;1.92;;;;;;;;;;5018237;28;20034;-78
2021/12/24 16:01:59;;;;;;;3.20;1.70;;;;;;;;;;5016845;28;20049;-79
2021/12/24 16:04:25;;;;;;;2.70;1.40;;;;;;;;;;5014021;28;20128;-80
2021/12/24 16:06:52;;;;;;;3.85;1.88;;;;;;;;;;5010919;28;20132;-80
2021/12/24 16:09:20;;;;;;;4.70;1.83;;;;;;;;;;5016539;28;20026;-79
2021/12/24 16:11:47;;;;;;;9.85;2.30;;;;;;;;;;5006422;28;20038;-78
2021/12/24 16:14:13;;;;;;;4.82;2.10;;;;;;;;;;5016369;28;20038;-78
2021/12/24 16:16:44;;;;;;;6.10;2.63;;;;;;;;;;5001701;28;20037;-79
2021/12/24 16:19:10;;;;;;;5.85;2.38;;;;;;;;;;5007737;28;20472;-80
2021/12/24 16:21:37;;;;;;;11.02;3.83;;;;;;;;;;5064716;28;20045;-79
2021/12/24 16:24:03;;;;;;;7.78;2.97;;;;;;;;;;5037365;28;20044;-79
2021/12/24 16:26:29;;;;;;;8.20;2.58;;;;;;;;;;5036426;28;20065;-79
2021/12/24 16:28:55;;;;;;;13.07;5.28;;;;;;;;;;5026342;28;20052;-78
2021/12/24 16:31:21;;;;;;;10.23;4.97;;;;;;;;;;5027392;28;20041;-78
2021/12/24 16:33:47;;;;;;;14.77;6.15;;;;;;;;;;5036357;28;20060;-78
2021/12/24 16:36:13;;;;;;;11.68;6.15;;;;;;;;;;5039168;28;20345;-80
2021/12/24 16:38:39;;;;;;;12.73;6.50;;;;;;;;;;5039335;28;20440;-76
2021/12/24 16:41:05;;;;;;;13.20;6.13;;;;;;;;;;5033805;28;20041;-79
2021/12/24 16:43:31;;;;;;;12.93;6.13;;;;;;;;;;5036364;28;20037;-81
2021/12/24 16:45:58;;;;;;;16.35;7.32;;;;;;;;;;5017542;28;20373;-79
2021/12/24 16:48:25;;;;;;;12.35;6.05;;;;;;;;;;5017841;28;20432;-78
2021/12/24 16:50:51;;;;;;;13.00;6.10;;;;;;;;;;5022325;28;20057;-77
2021/12/24 16:53:17;;;;;;;10.27;6.28;;;;;;;;;;5020446;28;20047;-76
2021/12/24 16:55:44;;;;;;;14.00;6.30;;;;;;;;;;5034905;28;20037;-80
2021/12/24 16:58:11;;;;;;;13.68;6.30;;;;;;;;;;5033766;28;20120;-79
2021/12/24 17:00:38;;;;;;;13.00;6.28;;;;;;;;;;5035624;28;20037;-75
2021/12/24 17:03:04;;;;;;;11.63;6.63;;;;;;;;;;5040043;28;20048;-78